sensor_id;sensor_type;location;lat;lon;timestamp;temperature;humidity
7016;DHT22;3548;48.402;9.990;2023-02-19T00:03:56;10.00;99.90
7016;DHT22;3548;48.402;9.990;2023-02-19T00:06:29;10.00;99.90
7016;DHT22;3548;48.402;9.990;2023-02-19T00:08:55;10.00;99.90
7016;DHT22;3548;48.402;9.990;2023-02-19T00:11:24;10.10;99.90
7016;DHT22;3548;48.402;9.990;2023-02-19T00:13:52;10.00;99.90
7016;DHT22;3548;48.402;9.990;2023-02-19T00:16:27;10.10;99.90
7016;DHT22;3548;48.402;9.990;2023-02-19T00:18:54;10.00;99.90
7016;DHT22;3548;48.402;9.990;2023-02-19T00:21:21;10.00;99.90
7016;DHT22;3548;48.402;9.990;2023-02-19T00:23:53;10.00;99.90
7016;DHT22;3548;48.402;9.990;2023-02-19T00:26:19;10.00;99.90
7016;DHT22;3548;48.402;9.990;2023-02-19T00:28:46;10.00;99.90
7016;DHT22;3548;48.402;9.990;2023-02-19T00:31:16;10.00;99.90
7016;DHT22;3548;48.402;9.990;2023-02-19T00:33:43;9.90;99.90
7016;DHT22;3548;48.402;9.990;2023-02-19T00:36:08;10.00;99.90
7016;DHT22;3548;48.402;9.990;2023-02-19T00:38:38;10.00;99.90
7016;DHT22;3548;48.402;9.990;2023-02-19T00:41:05;10.00;99.90
7016;DHT22;3548;48.402;9.990;2023-02-19T00:43:48;10.00;99.90
7016;DHT22;3548;48.402;9.990;2023-02-19T00:46:17;10.00;99.90
7016;DHT22;3548;48.402;9.990;2023-02-19T00:48:44;10.00;99.90
7016;DHT22;3548;48.402;9.990;2023-02-19T00:51:09;10.00;99.90
7016;DHT22;3548;48.402;9.990;2023-02-19T00:53:35;10.00;99.90
7016;DHT22;3548;48.402;9.990;2023-02-19T00:56:00;10.00;99.90
7016;DHT22;3548;48.402;9.990;2023-02-19T00:58:26;10.00;99.90
7016;DHT22;3548;48.402;9.990;2023-02-19T01:00:52;10.00;99.90
7016;DHT22;3548;48.402;9.990;2023-02-19T01:03:17;9.90;99.90
7016;DHT22;3548;48.402;9.990;2023-02-19T01:05:43;9.90;99.90
7016;DHT22;3548;48.402;9.990;2023-02-19T01:08:08;9.90;99.90
7016;DHT22;3548;48.402;9.990;2023-02-19T01:10:34;9.90;99.90
7016;DHT22;3548;48.402;9.990;2023-02-19T01:12:59;9.90;99.90
7016;DHT22;3548;48.402;9.990;2023-02-19T01:15:25;9.90;99.90
7016;DHT22;3548;48.402;9.990;2023-02-19T01:17:50;9.90;99.90
7016;DHT22;3548;48.402;9.990;2023-02-19T01:20:16;9.90;99.90
7016;DHT22;3548;48.402;9.990;2023-02-19T01:22:41;9.90;99.90
7016;DHT22;3548;48.402;9.990;2023-02-19T01:25:07;9.90;99.90
7016;DHT22;3548;48.402;9.990;2023-02-19T01:27:33;9.90;99.90
7016;DHT22;3548;48.402;9.990;2023-02-19T01:29:58;9.90;99.90
7016;DHT22;3548;48.402;9.990;2023-02-19T01:32:24;9.80;99.90
7016;DHT22;3548;48.402;9.990;2023-02-19T01:34:49;9.80;99.90
7016;DHT22;3548;48.402;9.990;2023-02-19T01:37:15;9.90;99.90
7016;DHT22;3548;48.402;9.990;2023-02-19T01:39:40;9.80;99.90
7016;DHT22;3548;48.402;9.990;2023-02-19T01:42:12;9.80;99.90
7016;DHT22;3548;48.402;9.990;2023-02-19T01:47:03;9.80;99.90
7016;DHT22;3548;48.402;9.990;2023-02-19T01:49:36;9.80;99.90
7016;DHT22;3548;48.402;9.990;2023-02-19T01:52:24;9.80;99.90
7016;DHT22;3548;48.402;9.990;2023-02-19T01:54:52;9.80;99.90
7016;DHT22;3548;48.402;9.990;2023-02-19T01:57:23;9.70;99.90
7016;DHT22;3548;48.402;9.990;2023-02-19T01:59:52;9.70;99.90
7016;DHT22;3548;48.402;9.990;2023-02-19T02:02:20;9.70;99.90
7016;DHT22;3548;48.402;9.990;2023-02-19T02:04:46;9.70;99.90
7016;DHT22;3548;48.402;9.990;2023-02-19T02:07:12;9.60;99.90
7016;DHT22;3548;48.402;9.990;2023-02-19T02:09:57;9.70;99.90
7016;DHT22;3548;48.402;9.990;2023-02-19T02:12:41;9.70;99.90
7016;DHT22;3548;48.402;9.990;2023-02-19T02:15:08;9.60;99.90
7016;DHT22;3548;48.402;9.990;2023-02-19T02:18:01;9.60;99.90
7016;DHT22;3548;48.402;9.990;2023-02-19T02:26:05;9.60;99.90
7016;DHT22;3548;48.402;9.990;2023-02-19T02:31:05;9.60;99.90
7016;DHT22;3548;48.402;9.990;2023-02-19T02:34:00;9.60;99.90
7016;DHT22;3548;48.402;9.990;2023-02-19T02:36:31;9.60;99.90
7016;DHT22;3548;48.402;9.990;2023-02-19T02:38:59;9.60;99.90
7016;DHT22;3548;48.402;9.990;2023-02-19T02:41:27;9.60;99.90
7016;DHT22;3548;48.402;9.990;2023-02-19T02:43:53;9.60;99.90
7016;DHT22;3548;48.402;9.990;2023-02-19T02:46:27;9.50;99.90
7016;DHT22;3548;48.402;9.990;2023-02-19T02:48:58;9.60;99.90
7016;DHT22;3548;48.402;9.990;2023-02-19T02:51:27;9.50;99.90
7016;DHT22;3548;48.402;9.990;2023-02-19T02:54:08;9.60;99.90
7016;DHT22;3548;48.402;9.990;2023-02-19T02:56:55;9.50;99.90
7016;DHT22;3548;48.402;9.990;2023-02-19T02:59:31;9.50;99.90
7016;DHT22;3548;48.402;9.990;2023-02-19T03:02:17;9.50;99.90
7016;DHT22;3548;48.402;9.990;2023-02-19T03:08:14;9.50;99.90
7016;DHT22;3548;48.402;9.990;2023-02-19T03:10:44;9.50;99.90
7016;DHT22;3548;48.402;9.990;2023-02-19T03:13:18;9.50;99.90
7016;DHT22;3548;48.402;9.990;2023-02-19T03:16:10;9.40;99.90
7016;DHT22;3548;48.402;9.990;2023-02-19T03:18:57;9.50;99.90
7016;DHT22;3548;48.402;9.990;2023-02-19T03:21:44;9.40;99.90
7016;DHT22;3548;48.402;9.990;2023-02-19T03:24:12;9.40;99.90
7016;DHT22;3548;48.402;9.990;2023-02-19T03:27:00;9.40;99.90
7016;DHT22;3548;48.402;9.990;2023-02-19T03:29:29;9.40;99.90
7016;DHT22;3548;48.402;9.990;2023-02-19T03:31:59;9.30;99.90
7016;DHT22;3548;48.402;9.990;2023-02-19T03:34:35;9.30;99.90
7016;DHT22;3548;48.402;9.990;2023-02-19T03:37:13;9.30;99.90
7016;DHT22;3548;48.402;9.990;2023-02-19T03:39:40;9.30;99.90
7016;DHT22;3548;48.402;9.990;2023-02-19T03:44:51;9.20;99.90
7016;DHT22;3548;48.402;9.990;2023-02-19T03:47:28;9.20;99.90
7016;DHT22;3548;48.402;9.990;2023-02-19T03:50:28;9.20;99.90
7016;DHT22;3548;48.402;9.990;2023-02-19T03:53:09;9.20;99.90
7016;DHT22;3548;48.402;9.990;2023-02-19T03:55:38;9.10;99.90
7016;DHT22;3548;48.402;9.990;2023-02-19T03:58:23;9.10;99.90
7016;DHT22;3548;48.402;9.990;2023-02-19T04:01:01;9.10;99.90
7016;DHT22;3548;48.402;9.990;2023-02-19T04:06:04;9.10;99.90
7016;DHT22;3548;48.402;9.990;2023-02-19T04:08:34;9.10;99.90
7016;DHT22;3548;48.402;9.990;2023-02-19T04:11:02;9.10;99.90
7016;DHT22;3548;48.402;9.990;2023-02-19T04:13:32;9.10;99.90
7016;DHT22;3548;48.402;9.990;2023-02-19T04:16:02;9.10;99.90
7016;DHT22;3548;48.402;9.990;2023-02-19T04:18:34;9.10;99.90
7016;DHT22;3548;48.402;9.990;2023-02-19T04:21:01;9.10;99.90
7016;DHT22;3548;48.402;9.990;2023-02-19T04:23:30;9.00;99.90
7016;DHT22;3548;48.402;9.990;2023-02-19T04:25:59;9.00;99.90
7016;DHT22;3548;48.402;9.990;2023-02-19T04:28:25;9.00;99.90
7016;DHT22;3548;48.402;9.990;2023-02-19T04:30:52;8.90;99.90
7016;DHT22;3548;48.402;9.990;2023-02-19T04:33:17;8.90;99.90
7016;DHT22;3548;48.402;9.990;2023-02-19T04:35:43;8.90;99.90
7016;DHT22;3548;48.402;9.990;2023-02-19T04:38:08;8.90;99.90
7016;DHT22;3548;48.402;9.990;2023-02-19T04:40:34;8.90;99.90
7016;DHT22;3548;48.402;9.990;2023-02-19T04:43:00;8.90;99.90
7016;DHT22;3548;48.402;9.990;2023-02-19T04:45:25;8.90;99.90
7016;DHT22;3548;48.402;9.990;2023-02-19T04:47:51;8.90;99.90
7016;DHT22;3548;48.402;9.990;2023-02-19T04:50:16;8.90;99.90
7016;DHT22;3548;48.402;9.990;2023-02-19T04:52:42;8.90;99.90
7016;DHT22;3548;48.402;9.990;2023-02-19T04:55:08;8.90;99.90
7016;DHT22;3548;48.402;9.990;2023-02-19T04:57:34;8.90;99.90
7016;DHT22;3548;48.402;9.990;2023-02-19T04:59:59;8.90;99.90
7016;DHT22;3548;48.402;9.990;2023-02-19T05:02:25;9.00;99.90
7016;DHT22;3548;48.402;9.990;2023-02-19T05:04:50;9.00;99.90
7016;DHT22;3548;48.402;9.990;2023-02-19T05:07:16;9.00;99.90
7016;DHT22;3548;48.402;9.990;2023-02-19T05:09:41;9.00;99.90
7016;DHT22;3548;48.402;9.990;2023-02-19T05:12:07;9.00;99.90
7016;DHT22;3548;48.402;9.990;2023-02-19T05:14:32;9.00;99.90
7016;DHT22;3548;48.402;9.990;2023-02-19T05:16:58;9.10;99.90
7016;DHT22;3548;48.402;9.990;2023-02-19T05:19:23;9.10;99.90
7016;DHT22;3548;48.402;9.990;2023-02-19T05:21:49;9.10;99.90
7016;DHT22;3548;48.402;9.990;2023-02-19T05:24:14;9.10;99.90
7016;DHT22;3548;48.402;9.990;2023-02-19T05:26:40;9.20;99.90
7016;DHT22;3548;48.402;9.990;2023-02-19T05:29:05;9.20;99.90
7016;DHT22;3548;48.402;9.990;2023-02-19T05:31:31;9.30;99.90
7016;DHT22;3548;48.402;9.990;2023-02-19T05:33:58;9.30;99.90
7016;DHT22;3548;48.402;9.990;2023-02-19T05:36:23;9.40;99.90
7016;DHT22;3548;48.402;9.990;2023-02-19T05:38:53;9.40;99.90
7016;DHT22;3548;48.402;9.990;2023-02-19T05:41:22;9.40;99.90
7016;DHT22;3548;48.402;9.990;2023-02-19T05:43:48;9.40;99.90
7016;DHT22;3548;48.402;9.990;2023-02-19T05:46:15;9.40;99.90
7016;DHT22;3548;48.402;9.990;2023-02-19T05:48:42;9.40;99.90
7016;DHT22;3548;48.402;9.990;2023-02-19T05:51:11;9.40;99.90
7016;DHT22;3548;48.402;9.990;2023-02-19T05:53:37;9.50;99.90
7016;DHT22;3548;48.402;9.990;2023-02-19T05:56:03;9.50;99.90
7016;DHT22;3548;48.402;9.990;2023-02-19T05:58:29;9.50;99.90
7016;DHT22;3548;48.402;9.990;2023-02-19T06:00:54;9.50;99.90
7016;DHT22;3548;48.402;9.990;2023-02-19T06:03:20;9.50;99.90
7016;DHT22;3548;48.402;9.990;2023-02-19T06:05:46;9.50;99.90
7016;DHT22;3548;48.402;9.990;2023-02-19T06:08:12;9.50;99.90
7016;DHT22;3548;48.402;9.990;2023-02-19T06:10:39;9.50;99.90
7016;DHT22;3548;48.402;9.990;2023-02-19T06:13:06;9.50;99.90
7016;DHT22;3548;48.402;9.990;2023-02-19T06:15:32;9.50;99.90
7016;DHT22;3548;48.402;9.990;2023-02-19T06:17:57;9.50;99.90
7016;DHT22;3548;48.402;9.990;2023-02-19T06:20:23;9.50;99.90
7016;DHT22;3548;48.402;9.990;2023-02-19T06:22:50;9.40;99.90
7016;DHT22;3548;48.402;9.990;2023-02-19T06:25:16;9.30;99.90
7016;DHT22;3548;48.402;9.990;2023-02-19T06:27:42;9.30;99.90
7016;DHT22;3548;48.402;9.990;2023-02-19T06:30:08;9.20;99.90
7016;DHT22;3548;48.402;9.990;2023-02-19T06:32:33;9.10;99.90
7016;DHT22;3548;48.402;9.990;2023-02-19T06:34:59;9.10;99.90
7016;DHT22;3548;48.402;9.990;2023-02-19T06:37:24;9.10;99.90
7016;DHT22;3548;48.402;9.990;2023-02-19T06:39:50;9.10;99.90
7016;DHT22;3548;48.402;9.990;2023-02-19T06:42:15;9.10;99.90
7016;DHT22;3548;48.402;9.990;2023-02-19T06:44:41;9.10;99.90
7016;DHT22;3548;48.402;9.990;2023-02-19T06:47:06;9.10;99.90
7016;DHT22;3548;48.402;9.990;2023-02-19T06:49:32;9.10;99.90
7016;DHT22;3548;48.402;9.990;2023-02-19T06:51:57;9.10;99.90
7016;DHT22;3548;48.402;9.990;2023-02-19T06:54:25;9.10;99.90
7016;DHT22;3548;48.402;9.990;2023-02-19T06:56:51;9.20;99.90
7016;DHT22;3548;48.402;9.990;2023-02-19T06:59:16;9.20;99.90
7016;DHT22;3548;48.402;9.990;2023-02-19T07:01:42;9.20;99.90
7016;DHT22;3548;48.402;9.990;2023-02-19T07:04:08;9.20;99.90
7016;DHT22;3548;48.402;9.990;2023-02-19T07:06:35;9.20;99.90
7016;DHT22;3548;48.402;9.990;2023-02-19T07:09:02;9.20;99.90
7016;DHT22;3548;48.402;9.990;2023-02-19T07:11:29;9.30;99.90
7016;DHT22;3548;48.402;9.990;2023-02-19T07:13:56;9.30;99.90
7016;DHT22;3548;48.402;9.990;2023-02-19T07:16:22;9.30;99.90
7016;DHT22;3548;48.402;9.990;2023-02-19T07:18:48;9.30;99.90
7016;DHT22;3548;48.402;9.990;2023-02-19T07:21:15;9.30;99.90
7016;DHT22;3548;48.402;9.990;2023-02-19T07:23:42;9.30;99.90
7016;DHT22;3548;48.402;9.990;2023-02-19T07:26:09;9.30;99.90
7016;DHT22;3548;48.402;9.990;2023-02-19T07:28:34;9.30;99.90
7016;DHT22;3548;48.402;9.990;2023-02-19T07:31:01;9.30;99.90
7016;DHT22;3548;48.402;9.990;2023-02-19T07:33:27;9.30;99.90
7016;DHT22;3548;48.402;9.990;2023-02-19T07:35:53;9.30;99.90
7016;DHT22;3548;48.402;9.990;2023-02-19T07:38:20;9.30;99.90
7016;DHT22;3548;48.402;9.990;2023-02-19T07:40:50;9.30;99.90
7016;DHT22;3548;48.402;9.990;2023-02-19T07:43:16;9.30;99.90
7016;DHT22;3548;48.402;9.990;2023-02-19T07:45:42;9.30;99.90
7016;DHT22;3548;48.402;9.990;2023-02-19T07:48:07;9.30;99.90
7016;DHT22;3548;48.402;9.990;2023-02-19T07:50:33;9.30;99.90
7016;DHT22;3548;48.402;9.990;2023-02-19T07:52:58;9.30;99.90
7016;DHT22;3548;48.402;9.990;2023-02-19T07:55:24;9.30;99.90
7016;DHT22;3548;48.402;9.990;2023-02-19T07:57:49;9.30;99.90
7016;DHT22;3548;48.402;9.990;2023-02-19T08:00:15;9.10;99.90
7016;DHT22;3548;48.402;9.990;2023-02-19T08:02:41;8.90;99.90
7016;DHT22;3548;48.402;9.990;2023-02-19T08:05:25;8.80;99.90
7016;DHT22;3548;48.402;9.990;2023-02-19T08:07:51;8.60;99.90
7016;DHT22;3548;48.402;9.990;2023-02-19T08:10:17;8.60;99.90
7016;DHT22;3548;48.402;9.990;2023-02-19T08:13:01;8.60;99.90
7016;DHT22;3548;48.402;9.990;2023-02-19T08:18:17;8.80;99.90
7016;DHT22;3548;48.402;9.990;2023-02-19T08:20:43;8.80;99.90
7016;DHT22;3548;48.402;9.990;2023-02-19T08:23:09;8.80;99.90
7016;DHT22;3548;48.402;9.990;2023-02-19T08:25:36;8.90;99.90
7016;DHT22;3548;48.402;9.990;2023-02-19T08:28:01;8.90;99.90
7016;DHT22;3548;48.402;9.990;2023-02-19T08:30:29;9.00;99.90
7016;DHT22;3548;48.402;9.990;2023-02-19T08:32:55;9.00;99.90
7016;DHT22;3548;48.402;9.990;2023-02-19T08:35:20;9.00;99.90
7016;DHT22;3548;48.402;9.990;2023-02-19T08:37:46;9.10;99.90
7016;DHT22;3548;48.402;9.990;2023-02-19T08:40:11;9.10;99.90
7016;DHT22;3548;48.402;9.990;2023-02-19T08:42:37;9.10;99.90
7016;DHT22;3548;48.402;9.990;2023-02-19T08:45:04;9.10;99.90
7016;DHT22;3548;48.402;9.990;2023-02-19T08:47:29;9.20;99.90
7016;DHT22;3548;48.402;9.990;2023-02-19T08:49:55;9.20;99.90
7016;DHT22;3548;48.402;9.990;2023-02-19T08:52:21;9.20;99.90
7016;DHT22;3548;48.402;9.990;2023-02-19T08:54:47;9.20;99.90
7016;DHT22;3548;48.402;9.990;2023-02-19T08:57:12;9.30;99.90
7016;DHT22;3548;48.402;9.990;2023-02-19T08:59:38;9.30;99.90
7016;DHT22;3548;48.402;9.990;2023-02-19T09:02:04;9.30;99.90
7016;DHT22;3548;48.402;9.990;2023-02-19T09:04:29;9.30;99.90
7016;DHT22;3548;48.402;9.990;2023-02-19T09:06:55;9.30;99.90
7016;DHT22;3548;48.402;9.990;2023-02-19T09:09:20;9.40;99.90
7016;DHT22;3548;48.402;9.990;2023-02-19T09:11:46;9.50;99.90
7016;DHT22;3548;48.402;9.990;2023-02-19T09:14:11;9.50;99.90
7016;DHT22;3548;48.402;9.990;2023-02-19T09:16:37;9.60;99.90
7016;DHT22;3548;48.402;9.990;2023-02-19T09:19:03;9.70;99.90
7016;DHT22;3548;48.402;9.990;2023-02-19T09:21:29;9.80;99.90
7016;DHT22;3548;48.402;9.990;2023-02-19T09:23:55;9.80;99.90
7016;DHT22;3548;48.402;9.990;2023-02-19T09:26:21;9.70;99.90
7016;DHT22;3548;48.402;9.990;2023-02-19T09:28:46;9.60;99.90
7016;DHT22;3548;48.402;9.990;2023-02-19T09:31:14;9.50;99.90
7016;DHT22;3548;48.402;9.990;2023-02-19T09:33:44;9.50;99.90
7016;DHT22;3548;48.402;9.990;2023-02-19T09:36:10;9.50;99.90
7016;DHT22;3548;48.402;9.990;2023-02-19T09:38:36;9.40;99.90
7016;DHT22;3548;48.402;9.990;2023-02-19T09:43:52;9.40;99.90
7016;DHT22;3548;48.402;9.990;2023-02-19T09:46:41;9.40;99.90
7016;DHT22;3548;48.402;9.990;2023-02-19T09:51:54;9.40;99.90
7016;DHT22;3548;48.402;9.990;2023-02-19T09:54:26;9.40;99.90
7016;DHT22;3548;48.402;9.990;2023-02-19T09:56:54;9.40;99.90
7016;DHT22;3548;48.402;9.990;2023-02-19T09:59:32;9.50;99.90
7016;DHT22;3548;48.402;9.990;2023-02-19T10:02:12;9.50;99.90
7016;DHT22;3548;48.402;9.990;2023-02-19T10:04:41;9.40;99.90
7016;DHT22;3548;48.402;9.990;2023-02-19T10:07:19;9.40;99.90
7016;DHT22;3548;48.402;9.990;2023-02-19T10:10:01;9.40;99.90
7016;DHT22;3548;48.402;9.990;2023-02-19T10:12:39;9.50;99.90
7016;DHT22;3548;48.402;9.990;2023-02-19T10:15:22;9.60;99.90
7016;DHT22;3548;48.402;9.990;2023-02-19T10:17:49;9.60;99.90
7016;DHT22;3548;48.402;9.990;2023-02-19T10:20:18;9.60;99.90
7016;DHT22;3548;48.402;9.990;2023-02-19T10:22:44;9.60;99.90
7016;DHT22;3548;48.402;9.990;2023-02-19T10:25:16;9.70;99.90
7016;DHT22;3548;48.402;9.990;2023-02-19T10:27:42;9.70;99.90
7016;DHT22;3548;48.402;9.990;2023-02-19T10:30:19;9.70;99.90
7016;DHT22;3548;48.402;9.990;2023-02-19T10:33:12;9.70;99.90
7016;DHT22;3548;48.402;9.990;2023-02-19T10:36:06;9.70;99.90
7016;DHT22;3548;48.402;9.990;2023-02-19T10:38:45;9.70;99.90
7016;DHT22;3548;48.402;9.990;2023-02-19T10:41:14;9.60;99.90
7016;DHT22;3548;48.402;9.990;2023-02-19T10:43:44;9.50;99.90
7016;DHT22;3548;48.402;9.990;2023-02-19T10:46:32;9.40;99.90
7016;DHT22;3548;48.402;9.990;2023-02-19T10:49:01;9.30;99.90
7016;DHT22;3548;48.402;9.990;2023-02-19T10:51:37;9.10;99.90
7016;DHT22;3548;48.402;9.990;2023-02-19T10:54:14;8.90;99.90
7016;DHT22;3548;48.402;9.990;2023-02-19T10:56:40;8.70;99.90
7016;DHT22;3548;48.402;9.990;2023-02-19T11:02:16;8.50;99.90
7016;DHT22;3548;48.402;9.990;2023-02-19T11:05:06;8.60;99.90
7016;DHT22;3548;48.402;9.990;2023-02-19T11:10:37;9.00;99.90
7016;DHT22;3548;48.402;9.990;2023-02-19T11:13:05;9.20;99.90
7016;DHT22;3548;48.402;9.990;2023-02-19T11:15:33;9.30;99.90
7016;DHT22;3548;48.402;9.990;2023-02-19T11:18:03;9.30;99.90
7016;DHT22;3548;48.402;9.990;2023-02-19T11:20:29;9.30;99.90
7016;DHT22;3548;48.402;9.990;2023-02-19T11:23:23;9.40;99.90
7016;DHT22;3548;48.402;9.990;2023-02-19T11:25:54;9.40;99.90
7016;DHT22;3548;48.402;9.990;2023-02-19T11:28:39;9.50;99.90
7016;DHT22;3548;48.402;9.990;2023-02-19T11:36:38;9.70;99.90
7016;DHT22;3548;48.402;9.990;2023-02-19T11:47:31;9.80;99.90
7016;DHT22;3548;48.402;9.990;2023-02-19T11:50:20;9.80;99.90
7016;DHT22;3548;48.402;9.990;2023-02-19T11:53:14;9.80;99.90
7016;DHT22;3548;48.402;9.990;2023-02-19T11:56:13;9.80;99.90
7016;DHT22;3548;48.402;9.990;2023-02-19T11:58:56;9.70;99.90
7016;DHT22;3548;48.402;9.990;2023-02-19T12:08:00;9.60;99.90
7016;DHT22;3548;48.402;9.990;2023-02-19T12:21:21;9.90;99.90
7016;DHT22;3548;48.402;9.990;2023-02-19T12:24:07;10.00;99.90
7016;DHT22;3548;48.402;9.990;2023-02-19T12:27:02;10.00;99.90
7016;DHT22;3548;48.402;9.990;2023-02-19T12:35:19;10.10;99.90
7016;DHT22;3548;48.402;9.990;2023-02-19T12:45:56;10.00;99.90
7016;DHT22;3548;48.402;9.990;2023-02-19T12:48:32;10.00;99.90
7016;DHT22;3548;48.402;9.990;2023-02-19T12:54:45;10.00;99.90
7016;DHT22;3548;48.402;9.990;2023-02-19T12:56:46;10.00;99.90
7016;DHT22;3548;48.402;9.990;2023-02-19T13:02:14;9.90;99.90
7016;DHT22;3548;48.402;9.990;2023-02-19T13:07:29;9.90;99.90
7016;DHT22;3548;48.402;9.990;2023-02-19T13:10:14;9.90;99.90
7016;DHT22;3548;48.402;9.990;2023-02-19T13:12:43;9.90;99.90
7016;DHT22;3548;48.402;9.990;2023-02-19T13:15:35;9.90;99.90
7016;DHT22;3548;48.402;9.990;2023-02-19T13:18:04;10.10;99.90
7016;DHT22;3548;48.402;9.990;2023-02-19T13:20:35;10.30;99.90
7016;DHT22;3548;48.402;9.990;2023-02-19T13:36:57;11.20;99.90
7016;DHT22;3548;48.402;9.990;2023-02-19T13:39:23;11.20;99.90
7016;DHT22;3548;48.402;9.990;2023-02-19T13:41:54;11.20;99.90
7016;DHT22;3548;48.402;9.990;2023-02-19T13:44:26;11.10;99.90
7016;DHT22;3548;48.402;9.990;2023-02-19T13:46:52;11.00;99.90
7016;DHT22;3548;48.402;9.990;2023-02-19T13:52:32;10.90;99.90
7016;DHT22;3548;48.402;9.990;2023-02-19T13:54:48;10.90;99.90
7016;DHT22;3548;48.402;9.990;2023-02-19T13:59:43;10.80;99.90
7016;DHT22;3548;48.402;9.990;2023-02-19T14:04:56;10.70;99.90
7016;DHT22;3548;48.402;9.990;2023-02-19T14:09:51;10.70;99.90
7016;DHT22;3548;48.402;9.990;2023-02-19T14:12:19;10.70;99.90
7016;DHT22;3548;48.402;9.990;2023-02-19T14:14:47;10.60;99.90
7016;DHT22;3548;48.402;9.990;2023-02-19T14:17:45;10.60;99.90
7016;DHT22;3548;48.402;9.990;2023-02-19T14:30:33;10.60;99.90
7016;DHT22;3548;48.402;9.990;2023-02-19T14:33:01;10.70;99.90
7016;DHT22;3548;48.402;9.990;2023-02-19T14:35:36;10.70;99.90
7016;DHT22;3548;48.402;9.990;2023-02-19T14:38:03;10.80;99.90
7016;DHT22;3548;48.402;9.990;2023-02-19T14:40:37;10.70;99.90
7016;DHT22;3548;48.402;9.990;2023-02-19T14:43:05;10.80;99.90
7016;DHT22;3548;48.402;9.990;2023-02-19T14:45:40;10.80;99.90
7016;DHT22;3548;48.402;9.990;2023-02-19T14:48:50;10.80;99.90
7016;DHT22;3548;48.402;9.990;2023-02-19T14:51:02;10.70;99.90
7016;DHT22;3548;48.402;9.990;2023-02-19T14:53:29;10.70;99.90
7016;DHT22;3548;48.402;9.990;2023-02-19T14:55:58;10.70;99.90
7016;DHT22;3548;48.402;9.990;2023-02-19T14:58:29;10.70;99.90
7016;DHT22;3548;48.402;9.990;2023-02-19T15:00:55;10.70;99.90
7016;DHT22;3548;48.402;9.990;2023-02-19T15:03:41;10.70;99.90
7016;DHT22;3548;48.402;9.990;2023-02-19T15:06:15;10.70;99.90
7016;DHT22;3548;48.402;9.990;2023-02-19T15:08:45;10.70;99.90
7016;DHT22;3548;48.402;9.990;2023-02-19T15:11:19;10.70;99.50
7016;DHT22;3548;48.402;9.990;2023-02-19T15:13:51;10.70;99.40
7016;DHT22;3548;48.402;9.990;2023-02-19T15:16:19;10.60;99.50
7016;DHT22;3548;48.402;9.990;2023-02-19T15:18:46;10.60;99.70
7016;DHT22;3548;48.402;9.990;2023-02-19T15:23:47;10.50;99.00
7016;DHT22;3548;48.402;9.990;2023-02-19T15:26:22;10.40;99.00
7016;DHT22;3548;48.402;9.990;2023-02-19T15:29:28;10.30;99.30
7016;DHT22;3548;48.402;9.990;2023-02-19T15:31:55;10.20;99.40
7016;DHT22;3548;48.402;9.990;2023-02-19T15:34:26;10.10;99.60
7016;DHT22;3548;48.402;9.990;2023-02-19T15:36:58;10.20;99.90
7016;DHT22;3548;48.402;9.990;2023-02-19T15:39:35;10.10;99.90
7016;DHT22;3548;48.402;9.990;2023-02-19T15:42:03;10.10;99.90
7016;DHT22;3548;48.402;9.990;2023-02-19T15:47:10;10.10;99.90
7016;DHT22;3548;48.402;9.990;2023-02-19T15:49:53;10.00;99.90
7016;DHT22;3548;48.402;9.990;2023-02-19T15:52:28;10.00;99.90
7016;DHT22;3548;48.402;9.990;2023-02-19T15:55:18;9.90;99.90
7016;DHT22;3548;48.402;9.990;2023-02-19T15:58:02;9.90;99.90
7016;DHT22;3548;48.402;9.990;2023-02-19T16:00:40;9.80;99.90
7016;DHT22;3548;48.402;9.990;2023-02-19T16:03:20;9.80;99.90
7016;DHT22;3548;48.402;9.990;2023-02-19T16:05:57;9.70;99.90
7016;DHT22;3548;48.402;9.990;2023-02-19T16:08:29;9.70;99.90
7016;DHT22;3548;48.402;9.990;2023-02-19T16:10:57;9.60;99.90
7016;DHT22;3548;48.402;9.990;2023-02-19T16:13:31;9.60;99.90
7016;DHT22;3548;48.402;9.990;2023-02-19T16:16:21;9.50;99.90
7016;DHT22;3548;48.402;9.990;2023-02-19T16:18:50;9.50;99.90
7016;DHT22;3548;48.402;9.990;2023-02-19T16:21:20;9.40;99.90
7016;DHT22;3548;48.402;9.990;2023-02-19T16:23:50;9.30;99.90
7016;DHT22;3548;48.402;9.990;2023-02-19T16:26:19;9.20;99.90
7016;DHT22;3548;48.402;9.990;2023-02-19T16:28:49;9.20;99.90
7016;DHT22;3548;48.402;9.990;2023-02-19T16:31:20;9.10;99.90
7016;DHT22;3548;48.402;9.990;2023-02-19T16:33:47;9.10;99.90
7016;DHT22;3548;48.402;9.990;2023-02-19T16:41:23;9.00;99.90
7016;DHT22;3548;48.402;9.990;2023-02-19T16:43:49;9.00;99.90
7016;DHT22;3548;48.402;9.990;2023-02-19T16:46:14;9.00;99.90
7016;DHT22;3548;48.402;9.990;2023-02-19T16:48:40;8.90;99.90
7016;DHT22;3548;48.402;9.990;2023-02-19T16:51:06;8.90;99.90
7016;DHT22;3548;48.402;9.990;2023-02-19T16:53:32;8.90;99.90
7016;DHT22;3548;48.402;9.990;2023-02-19T16:55:58;8.90;99.90
7016;DHT22;3548;48.402;9.990;2023-02-19T16:58:24;8.90;99.90
7016;DHT22;3548;48.402;9.990;2023-02-19T17:00:50;8.90;99.90
7016;DHT22;3548;48.402;9.990;2023-02-19T17:03:19;8.90;99.90
7016;DHT22;3548;48.402;9.990;2023-02-19T17:05:46;8.90;99.90
7016;DHT22;3548;48.402;9.990;2023-02-19T17:08:33;8.90;99.90
7016;DHT22;3548;48.402;9.990;2023-02-19T17:11:02;8.90;99.90
7016;DHT22;3548;48.402;9.990;2023-02-19T17:13:28;8.90;99.90
7016;DHT22;3548;48.402;9.990;2023-02-19T17:15:54;8.90;99.90
7016;DHT22;3548;48.402;9.990;2023-02-19T17:18:20;8.90;99.90
7016;DHT22;3548;48.402;9.990;2023-02-19T17:23:29;8.90;99.90
7016;DHT22;3548;48.402;9.990;2023-02-19T17:25:54;8.90;99.90
7016;DHT22;3548;48.402;9.990;2023-02-19T17:28:20;8.90;99.90
7016;DHT22;3548;48.402;9.990;2023-02-19T17:30:45;8.90;99.90
7016;DHT22;3548;48.402;9.990;2023-02-19T17:33:11;8.90;99.90
7016;DHT22;3548;48.402;9.990;2023-02-19T17:35:37;8.90;99.90
7016;DHT22;3548;48.402;9.990;2023-02-19T17:38:02;8.80;99.90
7016;DHT22;3548;48.402;9.990;2023-02-19T17:40:34;8.80;99.90
7016;DHT22;3548;48.402;9.990;2023-02-19T17:43:01;8.80;99.90
7016;DHT22;3548;48.402;9.990;2023-02-19T17:45:27;8.80;99.90
7016;DHT22;3548;48.402;9.990;2023-02-19T17:47:52;8.80;99.90
7016;DHT22;3548;48.402;9.990;2023-02-19T17:50:24;8.80;99.90
7016;DHT22;3548;48.402;9.990;2023-02-19T17:52:49;8.70;99.90
7016;DHT22;3548;48.402;9.990;2023-02-19T17:55:16;8.80;99.90
7016;DHT22;3548;48.402;9.990;2023-02-19T17:57:46;8.70;99.90
7016;DHT22;3548;48.402;9.990;2023-02-19T18:00:14;8.70;99.90
7016;DHT22;3548;48.402;9.990;2023-02-19T18:02:39;8.70;99.90
7016;DHT22;3548;48.402;9.990;2023-02-19T18:05:05;8.80;99.90
7016;DHT22;3548;48.402;9.990;2023-02-19T18:07:31;8.70;99.90
7016;DHT22;3548;48.402;9.990;2023-02-19T18:09:56;8.70;99.90
7016;DHT22;3548;48.402;9.990;2023-02-19T18:12:22;8.70;99.90
7016;DHT22;3548;48.402;9.990;2023-02-19T18:14:50;8.60;99.90
7016;DHT22;3548;48.402;9.990;2023-02-19T18:17:17;8.60;99.90
7016;DHT22;3548;48.402;9.990;2023-02-19T18:19:43;8.50;99.90
7016;DHT22;3548;48.402;9.990;2023-02-19T18:22:09;8.50;99.90
7016;DHT22;3548;48.402;9.990;2023-02-19T18:24:34;8.40;99.90
7016;DHT22;3548;48.402;9.990;2023-02-19T18:27:00;8.40;99.90
7016;DHT22;3548;48.402;9.990;2023-02-19T18:29:26;8.40;99.90
7016;DHT22;3548;48.402;9.990;2023-02-19T18:31:54;8.40;99.90
7016;DHT22;3548;48.402;9.990;2023-02-19T18:34:20;8.40;99.90
7016;DHT22;3548;48.402;9.990;2023-02-19T18:36:46;8.40;99.90
7016;DHT22;3548;48.402;9.990;2023-02-19T18:39:12;8.40;99.90
7016;DHT22;3548;48.402;9.990;2023-02-19T18:41:38;8.30;99.90
7016;DHT22;3548;48.402;9.990;2023-02-19T18:44:03;8.30;99.90
7016;DHT22;3548;48.402;9.990;2023-02-19T18:46:29;8.30;99.90
7016;DHT22;3548;48.402;9.990;2023-02-19T18:48:55;8.30;99.90
7016;DHT22;3548;48.402;9.990;2023-02-19T18:51:21;8.40;99.90